createdAt,value
2018-01-18T00:00:47.066Z,997.81
2018-01-18T00:05:43.559Z,997.83
2018-01-18T00:10:40.066Z,997.74
2018-01-18T00:15:36.522Z,997.77
2018-01-18T00:20:34.157Z,997.54
2018-01-18T00:25:29.597Z,997.51
2018-01-18T00:30:25.454Z,997.44
2018-01-18T00:35:22.056Z,997.42
2018-01-18T00:40:18.639Z,997.24
2018-01-18T00:45:14.796Z,997.11
2018-01-18T00:50:11.433Z,997.01
2018-01-18T00:55:06.693Z,996.94
2018-01-18T01:00:02.543Z,996.79
2018-01-18T01:04:58.201Z,996.75
2018-01-18T01:09:54.275Z,996.65
2018-01-18T01:14:50.531Z,996.55
2018-01-18T01:19:47.151Z,996.44
2018-01-18T01:24:42.941Z,996.38
2018-01-18T01:29:39.770Z,996.19
2018-01-18T01:34:35.517Z,996.08
2018-01-18T01:39:32.023Z,995.87
2018-01-18T01:44:29.172Z,995.75
2018-01-18T01:49:25.930Z,995.65
2018-01-18T01:54:22.237Z,995.68
2018-01-18T01:59:18.688Z,995.58
2018-01-18T02:04:14.901Z,995.34
2018-01-18T02:09:12.010Z,995.17
2018-01-18T02:14:07.213Z,995.11
2018-01-18T02:19:03.024Z,995.01
2018-01-18T02:23:59.601Z,994.73
2018-01-18T02:28:56.124Z,994.65
2018-01-18T02:33:53.403Z,994.37
2018-01-18T02:38:49.622Z,994.32
2018-01-18T02:43:45.331Z,994.14
2018-01-18T02:48:42.155Z,993.84
2018-01-18T02:53:38.570Z,993.73
2018-01-18T02:58:34.850Z,993.77
2018-01-18T03:03:32.518Z,993.62
2018-01-18T03:08:28.754Z,993.68
2018-01-18T03:13:24.104Z,993.40
2018-01-18T03:18:19.978Z,993.15
2018-01-18T03:23:15.917Z,992.93
2018-01-18T03:28:11.648Z,992.58
2018-01-18T03:33:06.947Z,992.31
2018-01-18T03:38:02.559Z,992.19
2018-01-18T03:42:58.514Z,992.04
2018-01-18T03:47:55.319Z,991.91
2018-01-18T03:52:50.715Z,991.53
2018-01-18T03:57:47.572Z,991.43
2018-01-18T04:02:43.134Z,991.00
2018-01-18T04:07:40.491Z,990.74
2018-01-18T04:12:36.376Z,990.52
2018-01-18T04:17:33.091Z,990.27
2018-01-18T04:22:30.410Z,990.00
2018-01-18T04:27:26.568Z,989.67
2018-01-18T04:32:22.902Z,989.39
2018-01-18T04:37:18.369Z,988.90
2018-01-18T04:42:13.944Z,988.54
2018-01-18T04:47:10.612Z,988.30
2018-01-18T04:52:05.994Z,988.04
2018-01-18T04:57:01.663Z,987.77
2018-01-18T05:01:57.487Z,987.65
2018-01-18T05:06:53.053Z,987.28
2018-01-18T05:11:48.632Z,987.08
2018-01-18T05:16:45.193Z,986.71
2018-01-18T05:21:40.646Z,986.33
2018-01-18T05:26:36.069Z,985.93
2018-01-18T05:31:31.902Z,985.59
2018-01-18T05:36:27.642Z,985.63
2018-01-18T05:41:23.918Z,985.50
2018-01-18T05:46:19.488Z,984.91
2018-01-18T05:51:15.045Z,984.78
2018-01-18T05:56:10.828Z,984.53
2018-01-18T06:01:06.670Z,984.09
2018-01-18T06:06:03.393Z,983.88
2018-01-18T06:10:59.050Z,983.61
2018-01-18T06:15:56.422Z,983.22
2018-01-18T06:20:52.813Z,982.97
2018-01-18T06:25:49.416Z,982.83
2018-01-18T06:30:44.994Z,982.55
2018-01-18T06:35:40.802Z,981.92
2018-01-18T06:40:38.529Z,981.91
2018-01-18T06:45:35.779Z,982.09
2018-01-18T06:50:32.696Z,981.84
2018-01-18T06:55:28.733Z,981.73
2018-01-18T07:00:24.507Z,981.37
2018-01-18T07:05:20.311Z,981.09
2018-01-18T07:10:15.953Z,980.90
2018-01-18T07:15:13.090Z,980.80
2018-01-18T07:20:08.498Z,980.40
2018-01-18T07:25:05.395Z,980.03
2018-01-18T07:30:01.950Z,979.78
2018-01-18T07:34:58.418Z,980.04
2018-01-18T07:39:54.104Z,979.70
2018-01-18T07:44:51.157Z,979.30
2018-01-18T07:49:46.727Z,979.29
2018-01-18T07:54:42.172Z,979.30
2018-01-18T07:59:39.833Z,979.13
2018-01-18T08:04:36.444Z,978.89
2018-01-18T08:09:32.007Z,978.91
2018-01-18T08:14:28.775Z,978.63
2018-01-18T08:19:24.759Z,978.38
2018-01-18T08:24:20.606Z,978.41
2018-01-18T08:29:17.018Z,978.31
2018-01-18T08:34:13.061Z,978.45
2018-01-18T08:39:09.750Z,978.30
2018-01-18T08:44:06.452Z,978.11
2018-01-18T08:49:03.025Z,977.75
2018-01-18T08:54:00.663Z,978.15
2018-01-18T08:58:56.901Z,978.01
2018-01-18T09:03:52.765Z,977.96
2018-01-18T09:08:49.320Z,977.70
2018-01-18T09:13:46.899Z,977.79
2018-01-18T09:18:42.101Z,977.48
2018-01-18T09:23:38.559Z,977.54
2018-01-18T09:28:35.090Z,977.61
2018-01-18T09:33:31.866Z,977.55
2018-01-18T09:38:28.300Z,977.71
2018-01-18T09:43:24.778Z,977.80
2018-01-18T09:48:21.184Z,977.83
2018-01-18T09:53:16.641Z,977.73
2018-01-18T09:58:13.166Z,977.71
2018-01-18T10:03:08.595Z,977.65
2018-01-18T10:08:04.316Z,977.74
2018-01-18T10:13:00.240Z,977.26
2018-01-18T10:17:57.114Z,977.64
2018-01-18T10:22:54.078Z,977.72
2018-01-18T10:27:49.509Z,977.67
2018-01-18T10:32:46.049Z,977.47
2018-01-18T10:37:41.514Z,977.73
2018-01-18T10:42:38.327Z,977.66
2018-01-18T10:47:34.891Z,977.49
2018-01-18T10:52:30.926Z,977.91
2018-01-18T10:57:26.094Z,978.03
2018-01-18T11:02:21.709Z,978.14
2018-01-18T11:07:17.268Z,978.01
2018-01-18T11:12:14.622Z,978.31
2018-01-18T11:17:10.651Z,979.24
2018-01-18T11:22:07.485Z,979.51
2018-01-18T11:27:02.329Z,980.01
2018-01-18T11:31:58.963Z,979.86
2018-01-18T11:36:54.369Z,980.50
2018-01-18T11:41:50.418Z,980.91
2018-01-18T11:46:48.103Z,980.68
2018-01-18T11:51:43.678Z,981.69
2018-01-18T11:56:39.165Z,982.10
2018-01-18T12:01:36.242Z,982.67
2018-01-18T12:06:31.798Z,983.04
2018-01-18T12:11:28.765Z,983.41
2018-01-18T12:16:25.009Z,983.98
2018-01-18T12:21:21.036Z,984.20
2018-01-18T12:26:17.943Z,984.86
2018-01-18T12:31:13.538Z,985.04
2018-01-18T12:36:10.216Z,984.76
2018-01-18T12:41:05.660Z,985.49
2018-01-18T12:46:02.575Z,985.65
2018-01-18T12:50:58.028Z,986.16
2018-01-18T12:55:53.618Z,986.41
2018-01-18T13:00:49.499Z,986.59
2018-01-18T13:05:46.362Z,986.92
2018-01-18T13:10:41.753Z,987.13
2018-01-18T13:15:37.272Z,987.45
2018-01-18T13:20:33.615Z,987.90
2018-01-18T13:25:29.213Z,988.03
2018-01-18T13:30:25.375Z,988.32
2018-01-18T13:35:20.758Z,988.48
2018-01-18T13:40:16.527Z,988.55
2018-01-18T13:45:13.365Z,988.99
2018-01-18T13:50:08.953Z,989.31
2018-01-18T13:55:04.684Z,989.30
2018-01-18T14:00:00.253Z,989.60
2018-01-18T14:04:55.860Z,989.77
2018-01-18T14:09:52.475Z,990.08
2018-01-18T14:14:49.027Z,990.13
2018-01-18T14:19:45.227Z,990.19
2018-01-18T14:24:41.530Z,990.23
2018-01-18T14:29:40.266Z,990.30
2018-01-18T14:34:34.949Z,990.48
2018-01-18T14:39:31.429Z,990.68
2018-01-18T14:44:28.006Z,990.81
2018-01-18T14:49:23.585Z,990.95
2018-01-18T14:54:19.203Z,991.03
2018-01-18T14:59:16.560Z,991.02
2018-01-18T15:04:12.909Z,991.21
2018-01-18T15:09:09.241Z,991.21
2018-01-18T15:14:05.059Z,991.48
2018-01-18T15:19:01.392Z,991.63
2018-01-18T15:23:58.133Z,991.81
2018-01-18T15:28:54.555Z,991.72
2018-01-18T15:33:50.187Z,991.88
2018-01-18T15:38:46.799Z,991.77
2018-01-18T15:43:42.223Z,991.97
2018-01-18T15:48:38.819Z,991.96
2018-01-18T15:53:35.439Z,992.14
2018-01-18T15:58:30.915Z,992.23
2018-01-18T16:03:26.565Z,992.30
2018-01-18T16:08:22.487Z,992.37
2018-01-18T16:13:18.454Z,992.45
2018-01-18T16:18:15.518Z,992.47
2018-01-18T16:23:12.054Z,992.65
2018-01-18T16:28:08.007Z,992.57
2018-01-18T16:33:03.524Z,992.74
2018-01-18T16:38:00.252Z,992.80
2018-01-18T16:42:56.878Z,992.90
2018-01-18T16:47:53.319Z,992.73
2018-01-18T16:52:50.662Z,992.88
2018-01-18T16:57:47.069Z,993.10
2018-01-18T17:02:43.306Z,993.07
2018-01-18T17:07:38.713Z,993.12
2018-01-18T17:12:35.412Z,993.22
2018-01-18T17:17:30.903Z,993.33
2018-01-18T17:22:26.501Z,993.45
2018-01-18T17:27:22.209Z,993.47
2018-01-18T17:32:17.687Z,993.49
2018-01-18T17:37:13.265Z,993.45
2018-01-18T17:42:09.123Z,993.59
2018-01-18T17:47:07.210Z,993.74
2018-01-18T17:52:03.268Z,993.73
2018-01-18T17:56:58.787Z,993.85
2018-01-18T18:01:54.616Z,993.78
2018-01-18T18:06:51.384Z,993.81
2018-01-18T18:11:47.522Z,993.81
2018-01-18T18:16:43.266Z,993.90
2018-01-18T18:21:38.853Z,993.92
2018-01-18T18:26:35.510Z,993.96
2018-01-18T18:31:30.854Z,994.02
2018-01-18T18:36:26.595Z,994.02
2018-01-18T18:41:23.312Z,994.13
2018-01-18T18:46:19.519Z,994.10
2018-01-18T18:51:15.532Z,994.24
2018-01-18T18:56:11.466Z,994.28
2018-01-18T19:01:07.189Z,994.27
2018-01-18T19:06:02.980Z,994.20
2018-01-18T19:10:58.547Z,994.30
2018-01-18T19:15:54.291Z,994.29
2018-01-18T19:20:49.571Z,994.30
2018-01-18T19:25:45.348Z,994.34
2018-01-18T19:30:40.747Z,994.41
2018-01-18T19:35:37.303Z,994.45
2018-01-18T19:40:34.228Z,994.50
2018-01-18T19:45:30.513Z,994.49
2018-01-18T19:50:27.532Z,994.56
2018-01-18T19:55:23.834Z,994.64
2018-01-18T20:00:20.455Z,994.72
2018-01-18T20:05:16.801Z,994.75
2018-01-18T20:10:13.891Z,994.73
2018-01-18T20:15:09.786Z,994.75
2018-01-18T20:20:05.250Z,994.80
2018-01-18T20:25:00.783Z,994.79
2018-01-18T20:29:57.339Z,994.77
2018-01-18T20:34:53.727Z,994.83
2018-01-18T20:39:50.257Z,994.82
2018-01-18T20:44:46.728Z,994.99
2018-01-18T20:49:43.095Z,994.99
2018-01-18T20:54:38.426Z,994.88
2018-01-18T20:59:34.049Z,994.95
2018-01-18T21:04:29.774Z,995.02
2018-01-18T21:09:30.205Z,994.93
2018-01-18T21:14:25.602Z,994.96
2018-01-18T21:19:22.093Z,995.03
2018-01-18T21:24:18.440Z,995.12
2018-01-18T21:29:18.558Z,995.11
2018-01-18T21:34:13.780Z,995.16
2018-01-18T21:39:13.193Z,995.21
2018-01-18T21:49:13.026Z,995.17
2018-01-18T21:54:13.130Z,995.21
2018-01-18T21:59:07.922Z,995.20
2018-01-18T22:04:03.536Z,995.28
2018-01-18T22:09:05.180Z,995.31
2018-01-18T22:14:03.675Z,995.23
2018-01-18T22:24:08.382Z,995.34
2018-01-18T22:34:02.602Z,995.30
2018-01-18T22:38:58.371Z,995.24
2018-01-18T22:43:54.968Z,995.26
2018-01-18T22:48:54.262Z,995.31
2018-01-18T22:53:50.926Z,995.35
2018-01-18T22:58:46.541Z,995.36
2018-01-18T23:03:42.040Z,995.34
2018-01-18T23:08:37.569Z,995.44
2018-01-18T23:13:34.359Z,995.44
2018-01-18T23:18:34.666Z,995.52
2018-01-18T23:23:30.413Z,995.47
2018-01-18T23:28:27.009Z,995.49
2018-01-18T23:33:26.591Z,995.49
2018-01-18T23:38:26.368Z,995.53
2018-01-18T23:43:23.033Z,995.59
2018-01-18T23:48:20.144Z,995.53
2018-01-18T23:53:20.456Z,995.48
2018-01-18T23:58:15.207Z,995.58
